sensor_id;sensor_type;location;lat;lon;timestamp;P1;durP1;ratioP1;P2;durP2;ratioP2
28174;SDS011;59417;44.788;10.334;2024-03-29T00:01:05;46.83;;;31.33;;
28174;SDS011;59417;44.788;10.334;2024-03-29T00:03:31;41.85;;;28.65;;
28174;SDS011;59417;44.788;10.334;2024-03-29T00:05:57;43.40;;;28.63;;
28174;SDS011;59417;44.788;10.334;2024-03-29T00:08:26;42.38;;;28.88;;
28174;SDS011;59417;44.788;10.334;2024-03-29T00:10:55;44.80;;;29.77;;
28174;SDS011;59417;44.788;10.334;2024-03-29T00:13:21;43.10;;;30.85;;
28174;SDS011;59417;44.788;10.334;2024-03-29T00:15:50;42.17;;;28.73;;
28174;SDS011;59417;44.788;10.334;2024-03-29T00:18:16;44.22;;;30.13;;
28174;SDS011;59417;44.788;10.334;2024-03-29T00:20:46;45.47;;;31.52;;
28174;SDS011;59417;44.788;10.334;2024-03-29T00:23:12;47.17;;;32.25;;
28174;SDS011;59417;44.788;10.334;2024-03-29T00:25:39;52.10;;;31.25;;
28174;SDS011;59417;44.788;10.334;2024-03-29T00:28:05;47.45;;;31.13;;
28174;SDS011;59417;44.788;10.334;2024-03-29T00:30:34;42.47;;;28.98;;
28174;SDS011;59417;44.788;10.334;2024-03-29T00:33:01;45.30;;;29.58;;
28174;SDS011;59417;44.788;10.334;2024-03-29T00:35:27;42.78;;;28.40;;
28174;SDS011;59417;44.788;10.334;2024-03-29T00:37:54;42.22;;;30.08;;
28174;SDS011;59417;44.788;10.334;2024-03-29T00:40:19;45.03;;;29.30;;
28174;SDS011;59417;44.788;10.334;2024-03-29T00:42:46;46.25;;;28.65;;
28174;SDS011;59417;44.788;10.334;2024-03-29T00:45:12;43.72;;;29.00;;
28174;SDS011;59417;44.788;10.334;2024-03-29T00:47:39;51.03;;;29.35;;
28174;SDS011;59417;44.788;10.334;2024-03-29T00:50:04;39.10;;;24.95;;
28174;SDS011;59417;44.788;10.334;2024-03-29T00:52:33;40.45;;;28.00;;
28174;SDS011;59417;44.788;10.334;2024-03-29T00:55:02;40.53;;;27.73;;
28174;SDS011;59417;44.788;10.334;2024-03-29T00:57:33;41.58;;;28.13;;
28174;SDS011;59417;44.788;10.334;2024-03-29T01:00:01;45.33;;;27.92;;
28174;SDS011;59417;44.788;10.334;2024-03-29T01:02:27;37.40;;;25.30;;
28174;SDS011;59417;44.788;10.334;2024-03-29T01:04:53;45.70;;;28.30;;
28174;SDS011;59417;44.788;10.334;2024-03-29T01:07:19;42.20;;;25.92;;
28174;SDS011;59417;44.788;10.334;2024-03-29T01:09:45;39.03;;;27.15;;
28174;SDS011;59417;44.788;10.334;2024-03-29T01:12:12;38.67;;;25.40;;
28174;SDS011;59417;44.788;10.334;2024-03-29T01:14:38;41.05;;;26.13;;
28174;SDS011;59417;44.788;10.334;2024-03-29T01:17:05;39.42;;;27.48;;
28174;SDS011;59417;44.788;10.334;2024-03-29T01:19:32;40.13;;;26.52;;
28174;SDS011;59417;44.788;10.334;2024-03-29T01:21:58;34.35;;;23.85;;
28174;SDS011;59417;44.788;10.334;2024-03-29T01:24:24;39.00;;;25.38;;
28174;SDS011;59417;44.788;10.334;2024-03-29T01:26:50;32.53;;;22.80;;
28174;SDS011;59417;44.788;10.334;2024-03-29T01:29:20;39.60;;;25.63;;
28174;SDS011;59417;44.788;10.334;2024-03-29T01:31:49;37.70;;;25.67;;
28174;SDS011;59417;44.788;10.334;2024-03-29T01:34:18;35.13;;;25.75;;
28174;SDS011;59417;44.788;10.334;2024-03-29T01:36:44;36.90;;;24.30;;
28174;SDS011;59417;44.788;10.334;2024-03-29T01:39:11;33.58;;;23.77;;
28174;SDS011;59417;44.788;10.334;2024-03-29T01:41:40;33.90;;;21.55;;
28174;SDS011;59417;44.788;10.334;2024-03-29T01:44:06;40.33;;;24.92;;
28174;SDS011;59417;44.788;10.334;2024-03-29T01:46:33;41.65;;;24.15;;
28174;SDS011;59417;44.788;10.334;2024-03-29T01:49:02;34.83;;;23.27;;
28174;SDS011;59417;44.788;10.334;2024-03-29T01:51:30;42.70;;;27.23;;
28174;SDS011;59417;44.788;10.334;2024-03-29T01:54:02;37.47;;;26.88;;
28174;SDS011;59417;44.788;10.334;2024-03-29T01:56:29;35.65;;;23.20;;
28174;SDS011;59417;44.788;10.334;2024-03-29T01:58:56;41.15;;;25.27;;
28174;SDS011;59417;44.788;10.334;2024-03-29T02:01:26;37.55;;;24.63;;
28174;SDS011;59417;44.788;10.334;2024-03-29T02:03:56;38.38;;;24.02;;
28174;SDS011;59417;44.788;10.334;2024-03-29T02:06:23;34.78;;;23.23;;
28174;SDS011;59417;44.788;10.334;2024-03-29T02:08:51;37.85;;;24.70;;
28174;SDS011;59417;44.788;10.334;2024-03-29T02:11:21;41.50;;;24.25;;
28174;SDS011;59417;44.788;10.334;2024-03-29T02:13:55;41.50;;;24.67;;
28174;SDS011;59417;44.788;10.334;2024-03-29T02:16:22;36.33;;;25.00;;
28174;SDS011;59417;44.788;10.334;2024-03-29T02:18:51;40.42;;;26.38;;
28174;SDS011;59417;44.788;10.334;2024-03-29T02:21:17;43.50;;;26.30;;
28174;SDS011;59417;44.788;10.334;2024-03-29T02:23:44;35.67;;;24.08;;
28174;SDS011;59417;44.788;10.334;2024-03-29T02:26:19;33.80;;;23.60;;
28174;SDS011;59417;44.788;10.334;2024-03-29T02:28:45;33.92;;;24.13;;
28174;SDS011;59417;44.788;10.334;2024-03-29T02:31:11;39.47;;;25.38;;
28174;SDS011;59417;44.788;10.334;2024-03-29T02:33:37;41.80;;;26.02;;
28174;SDS011;59417;44.788;10.334;2024-03-29T02:36:03;37.55;;;23.27;;
28174;SDS011;59417;44.788;10.334;2024-03-29T02:38:30;36.60;;;24.88;;
28174;SDS011;59417;44.788;10.334;2024-03-29T02:40:56;43.92;;;26.00;;
28174;SDS011;59417;44.788;10.334;2024-03-29T02:43:26;36.15;;;24.92;;
28174;SDS011;59417;44.788;10.334;2024-03-29T02:45:52;40.60;;;24.42;;
28174;SDS011;59417;44.788;10.334;2024-03-29T02:48:19;39.90;;;25.83;;
28174;SDS011;59417;44.788;10.334;2024-03-29T02:50:45;42.53;;;24.55;;
28174;SDS011;59417;44.788;10.334;2024-03-29T02:53:11;41.67;;;23.85;;
28174;SDS011;59417;44.788;10.334;2024-03-29T02:55:37;38.83;;;25.55;;
28174;SDS011;59417;44.788;10.334;2024-03-29T02:58:06;38.47;;;26.70;;
28174;SDS011;59417;44.788;10.334;2024-03-29T03:00:35;35.58;;;24.48;;
28174;SDS011;59417;44.788;10.334;2024-03-29T03:03:00;36.67;;;25.38;;
28174;SDS011;59417;44.788;10.334;2024-03-29T03:05:27;35.50;;;22.98;;
28174;SDS011;59417;44.788;10.334;2024-03-29T03:07:57;36.78;;;22.25;;
28174;SDS011;59417;44.788;10.334;2024-03-29T03:10:48;33.75;;;21.67;;
28174;SDS011;59417;44.788;10.334;2024-03-29T03:13:28;32.40;;;22.98;;
28174;SDS011;59417;44.788;10.334;2024-03-29T03:16:03;36.95;;;24.00;;
28174;SDS011;59417;44.788;10.334;2024-03-29T03:18:29;33.80;;;23.40;;
28174;SDS011;59417;44.788;10.334;2024-03-29T03:20:56;36.40;;;24.02;;
28174;SDS011;59417;44.788;10.334;2024-03-29T03:23:28;41.38;;;24.55;;
28174;SDS011;59417;44.788;10.334;2024-03-29T03:25:54;34.05;;;22.20;;
28174;SDS011;59417;44.788;10.334;2024-03-29T03:28:24;34.42;;;22.65;;
28174;SDS011;59417;44.788;10.334;2024-03-29T03:30:51;37.03;;;24.10;;
28174;SDS011;59417;44.788;10.334;2024-03-29T03:33:21;36.55;;;24.15;;
28174;SDS011;59417;44.788;10.334;2024-03-29T03:35:50;36.97;;;24.98;;
28174;SDS011;59417;44.788;10.334;2024-03-29T03:38:16;36.85;;;25.10;;
28174;SDS011;59417;44.788;10.334;2024-03-29T03:40:42;37.75;;;25.63;;
28174;SDS011;59417;44.788;10.334;2024-03-29T03:43:08;34.97;;;23.13;;
28174;SDS011;59417;44.788;10.334;2024-03-29T03:45:38;36.03;;;24.05;;
28174;SDS011;59417;44.788;10.334;2024-03-29T03:48:10;32.85;;;23.17;;
28174;SDS011;59417;44.788;10.334;2024-03-29T03:50:39;45.17;;;26.30;;
28174;SDS011;59417;44.788;10.334;2024-03-29T03:53:07;45.85;;;26.75;;
28174;SDS011;59417;44.788;10.334;2024-03-29T03:55:36;39.20;;;27.42;;
28174;SDS011;59417;44.788;10.334;2024-03-29T03:58:02;34.45;;;24.42;;
28174;SDS011;59417;44.788;10.334;2024-03-29T04:00:32;36.25;;;25.23;;
28174;SDS011;59417;44.788;10.334;2024-03-29T04:03:02;33.47;;;25.27;;
28174;SDS011;59417;44.788;10.334;2024-03-29T04:05:36;44.15;;;29.10;;
28174;SDS011;59417;44.788;10.334;2024-03-29T04:08:05;40.10;;;27.85;;
28174;SDS011;59417;44.788;10.334;2024-03-29T04:10:31;44.92;;;30.20;;
28174;SDS011;59417;44.788;10.334;2024-03-29T04:12:58;47.03;;;29.42;;
28174;SDS011;59417;44.788;10.334;2024-03-29T04:15:24;43.35;;;30.15;;
28174;SDS011;59417;44.788;10.334;2024-03-29T04:17:51;44.38;;;28.48;;
28174;SDS011;59417;44.788;10.334;2024-03-29T04:20:17;39.28;;;28.40;;
28174;SDS011;59417;44.788;10.334;2024-03-29T04:22:43;43.72;;;29.73;;
28174;SDS011;59417;44.788;10.334;2024-03-29T04:25:14;41.00;;;29.10;;
28174;SDS011;59417;44.788;10.334;2024-03-29T04:27:41;41.50;;;28.40;;
28174;SDS011;59417;44.788;10.334;2024-03-29T04:30:07;37.58;;;26.85;;
28174;SDS011;59417;44.788;10.334;2024-03-29T04:32:34;44.50;;;26.88;;
28174;SDS011;59417;44.788;10.334;2024-03-29T04:35:00;42.33;;;26.77;;
28174;SDS011;59417;44.788;10.334;2024-03-29T04:37:29;52.15;;;32.70;;
28174;SDS011;59417;44.788;10.334;2024-03-29T04:39:55;55.33;;;35.50;;
28174;SDS011;59417;44.788;10.334;2024-03-29T04:42:20;64.55;;;37.30;;
28174;SDS011;59417;44.788;10.334;2024-03-29T04:44:47;65.72;;;36.42;;
28174;SDS011;59417;44.788;10.334;2024-03-29T04:47:13;54.67;;;31.27;;
28174;SDS011;59417;44.788;10.334;2024-03-29T04:49:39;53.47;;;34.13;;
28174;SDS011;59417;44.788;10.334;2024-03-29T04:52:05;58.65;;;34.22;;
28174;SDS011;59417;44.788;10.334;2024-03-29T04:54:32;54.72;;;33.50;;
28174;SDS011;59417;44.788;10.334;2024-03-29T04:57:02;56.90;;;34.05;;
28174;SDS011;59417;44.788;10.334;2024-03-29T05:01:58;51.15;;;32.75;;
28174;SDS011;59417;44.788;10.334;2024-03-29T05:04:25;60.75;;;36.20;;
28174;SDS011;59417;44.788;10.334;2024-03-29T05:06:55;47.67;;;31.27;;
28174;SDS011;59417;44.788;10.334;2024-03-29T05:09:25;51.85;;;34.92;;
28174;SDS011;59417;44.788;10.334;2024-03-29T05:11:54;45.40;;;32.80;;
28174;SDS011;59417;44.788;10.334;2024-03-29T05:14:21;53.10;;;34.03;;
28174;SDS011;59417;44.788;10.334;2024-03-29T05:16:47;51.42;;;34.70;;
28174;SDS011;59417;44.788;10.334;2024-03-29T05:19:14;49.20;;;32.72;;
28174;SDS011;59417;44.788;10.334;2024-03-29T05:21:42;44.20;;;29.50;;
28174;SDS011;59417;44.788;10.334;2024-03-29T05:24:11;48.10;;;32.92;;
28174;SDS011;59417;44.788;10.334;2024-03-29T05:26:37;49.25;;;33.17;;
28174;SDS011;59417;44.788;10.334;2024-03-29T05:29:03;46.33;;;32.15;;
28174;SDS011;59417;44.788;10.334;2024-03-29T05:31:29;53.70;;;32.22;;
28174;SDS011;59417;44.788;10.334;2024-03-29T05:33:56;45.45;;;30.40;;
28174;SDS011;59417;44.788;10.334;2024-03-29T05:36:26;46.58;;;32.58;;
28174;SDS011;59417;44.788;10.334;2024-03-29T05:38:52;45.15;;;30.95;;
28174;SDS011;59417;44.788;10.334;2024-03-29T05:41:18;49.58;;;33.63;;
28174;SDS011;59417;44.788;10.334;2024-03-29T05:43:44;47.38;;;30.88;;
28174;SDS011;59417;44.788;10.334;2024-03-29T05:46:14;50.78;;;33.03;;
28174;SDS011;59417;44.788;10.334;2024-03-29T05:48:42;44.72;;;30.23;;
28174;SDS011;59417;44.788;10.334;2024-03-29T05:51:08;48.20;;;32.55;;
28174;SDS011;59417;44.788;10.334;2024-03-29T05:53:34;48.42;;;32.80;;
28174;SDS011;59417;44.788;10.334;2024-03-29T05:56:00;54.22;;;34.58;;
28174;SDS011;59417;44.788;10.334;2024-03-29T05:58:27;51.90;;;34.60;;
28174;SDS011;59417;44.788;10.334;2024-03-29T06:00:53;55.38;;;34.50;;
28174;SDS011;59417;44.788;10.334;2024-03-29T06:03:21;56.83;;;35.17;;
28174;SDS011;59417;44.788;10.334;2024-03-29T06:05:49;55.78;;;35.42;;
28174;SDS011;59417;44.788;10.334;2024-03-29T06:08:15;56.00;;;36.92;;
28174;SDS011;59417;44.788;10.334;2024-03-29T06:10:44;54.70;;;36.58;;
28174;SDS011;59417;44.788;10.334;2024-03-29T06:13:10;59.50;;;36.42;;
28174;SDS011;59417;44.788;10.334;2024-03-29T06:15:53;53.30;;;36.72;;
28174;SDS011;59417;44.788;10.334;2024-03-29T06:18:40;51.50;;;33.47;;
28174;SDS011;59417;44.788;10.334;2024-03-29T06:21:07;53.55;;;36.35;;
28174;SDS011;59417;44.788;10.334;2024-03-29T06:23:33;50.88;;;34.65;;
28174;SDS011;59417;44.788;10.334;2024-03-29T06:25:59;58.78;;;37.42;;
28174;SDS011;59417;44.788;10.334;2024-03-29T06:28:26;58.25;;;36.03;;
28174;SDS011;59417;44.788;10.334;2024-03-29T06:30:56;57.35;;;38.45;;
28174;SDS011;59417;44.788;10.334;2024-03-29T06:33:22;49.60;;;37.22;;
28174;SDS011;59417;44.788;10.334;2024-03-29T06:35:54;54.30;;;37.35;;
28174;SDS011;59417;44.788;10.334;2024-03-29T06:38:20;52.30;;;36.65;;
28174;SDS011;59417;44.788;10.334;2024-03-29T06:40:46;50.33;;;34.13;;
28174;SDS011;59417;44.788;10.334;2024-03-29T06:43:15;56.15;;;38.88;;
28174;SDS011;59417;44.788;10.334;2024-03-29T06:45:41;59.15;;;37.95;;
28174;SDS011;59417;44.788;10.334;2024-03-29T06:48:10;54.28;;;38.55;;
28174;SDS011;59417;44.788;10.334;2024-03-29T06:50:37;57.45;;;37.00;;
28174;SDS011;59417;44.788;10.334;2024-03-29T06:53:06;55.25;;;36.35;;
28174;SDS011;59417;44.788;10.334;2024-03-29T06:55:34;59.35;;;35.88;;
28174;SDS011;59417;44.788;10.334;2024-03-29T06:58:06;59.05;;;38.15;;
28174;SDS011;59417;44.788;10.334;2024-03-29T07:00:32;51.97;;;37.35;;
28174;SDS011;59417;44.788;10.334;2024-03-29T07:02:58;55.25;;;36.90;;
28174;SDS011;59417;44.788;10.334;2024-03-29T07:05:24;57.22;;;36.13;;
28174;SDS011;59417;44.788;10.334;2024-03-29T07:07:49;57.88;;;38.45;;
28174;SDS011;59417;44.788;10.334;2024-03-29T07:10:15;52.80;;;36.63;;
28174;SDS011;59417;44.788;10.334;2024-03-29T07:12:41;58.20;;;37.35;;
28174;SDS011;59417;44.788;10.334;2024-03-29T07:15:07;49.35;;;36.60;;
28174;SDS011;59417;44.788;10.334;2024-03-29T07:17:33;62.92;;;37.83;;
28174;SDS011;59417;44.788;10.334;2024-03-29T07:19:59;58.45;;;37.38;;
28174;SDS011;59417;44.788;10.334;2024-03-29T07:22:25;53.28;;;35.83;;
28174;SDS011;59417;44.788;10.334;2024-03-29T07:24:50;54.10;;;36.88;;
28174;SDS011;59417;44.788;10.334;2024-03-29T07:27:16;57.58;;;37.33;;
28174;SDS011;59417;44.788;10.334;2024-03-29T07:29:43;53.97;;;35.65;;
28174;SDS011;59417;44.788;10.334;2024-03-29T07:32:10;54.53;;;38.35;;
28174;SDS011;59417;44.788;10.334;2024-03-29T07:34:36;56.38;;;39.42;;
28174;SDS011;59417;44.788;10.334;2024-03-29T07:37:04;54.97;;;38.17;;
28174;SDS011;59417;44.788;10.334;2024-03-29T07:39:33;58.22;;;38.85;;
28174;SDS011;59417;44.788;10.334;2024-03-29T07:42:02;51.05;;;35.42;;
28174;SDS011;59417;44.788;10.334;2024-03-29T07:44:30;58.90;;;40.30;;
28174;SDS011;59417;44.788;10.334;2024-03-29T07:46:55;55.28;;;38.30;;
28174;SDS011;59417;44.788;10.334;2024-03-29T07:49:21;61.30;;;39.03;;
28174;SDS011;59417;44.788;10.334;2024-03-29T07:51:47;60.85;;;38.97;;
28174;SDS011;59417;44.788;10.334;2024-03-29T07:54:13;62.90;;;39.08;;
28174;SDS011;59417;44.788;10.334;2024-03-29T07:56:42;60.83;;;38.57;;
28174;SDS011;59417;44.788;10.334;2024-03-29T07:59:08;58.65;;;37.55;;
28174;SDS011;59417;44.788;10.334;2024-03-29T08:01:33;59.40;;;38.45;;
28174;SDS011;59417;44.788;10.334;2024-03-29T08:04:00;59.53;;;35.00;;
28174;SDS011;59417;44.788;10.334;2024-03-29T08:06:34;54.10;;;35.70;;
28174;SDS011;59417;44.788;10.334;2024-03-29T08:09:00;56.67;;;37.75;;
28174;SDS011;59417;44.788;10.334;2024-03-29T08:11:33;62.40;;;40.53;;
28174;SDS011;59417;44.788;10.334;2024-03-29T08:14:04;57.20;;;40.55;;
28174;SDS011;59417;44.788;10.334;2024-03-29T08:16:32;57.10;;;36.38;;
28174;SDS011;59417;44.788;10.334;2024-03-29T08:19:01;56.38;;;37.95;;
28174;SDS011;59417;44.788;10.334;2024-03-29T08:21:28;53.83;;;34.92;;
28174;SDS011;59417;44.788;10.334;2024-03-29T08:24:03;58.97;;;38.05;;
28174;SDS011;59417;44.788;10.334;2024-03-29T08:26:40;53.05;;;38.72;;
28174;SDS011;59417;44.788;10.334;2024-03-29T08:29:09;51.67;;;37.97;;
28174;SDS011;59417;44.788;10.334;2024-03-29T08:31:43;54.15;;;38.17;;
28174;SDS011;59417;44.788;10.334;2024-03-29T08:34:14;54.88;;;38.53;;
28174;SDS011;59417;44.788;10.334;2024-03-29T08:36:41;60.45;;;40.25;;
28174;SDS011;59417;44.788;10.334;2024-03-29T08:39:08;57.65;;;37.60;;
28174;SDS011;59417;44.788;10.334;2024-03-29T08:41:36;55.08;;;38.75;;
28174;SDS011;59417;44.788;10.334;2024-03-29T08:44:04;55.25;;;36.88;;
28174;SDS011;59417;44.788;10.334;2024-03-29T08:46:34;63.63;;;39.50;;
28174;SDS011;59417;44.788;10.334;2024-03-29T08:49:14;55.08;;;38.40;;
28174;SDS011;59417;44.788;10.334;2024-03-29T08:51:41;62.22;;;39.28;;
28174;SDS011;59417;44.788;10.334;2024-03-29T08:54:12;56.50;;;39.90;;
28174;SDS011;59417;44.788;10.334;2024-03-29T08:56:38;61.88;;;39.90;;
28174;SDS011;59417;44.788;10.334;2024-03-29T08:59:06;59.60;;;39.05;;
28174;SDS011;59417;44.788;10.334;2024-03-29T09:01:38;54.03;;;38.97;;
28174;SDS011;59417;44.788;10.334;2024-03-29T09:04:08;59.20;;;38.58;;
28174;SDS011;59417;44.788;10.334;2024-03-29T09:06:39;52.92;;;35.30;;
28174;SDS011;59417;44.788;10.334;2024-03-29T09:09:17;60.50;;;40.13;;
28174;SDS011;59417;44.788;10.334;2024-03-29T09:11:45;62.25;;;40.15;;
28174;SDS011;59417;44.788;10.334;2024-03-29T09:14:14;57.13;;;35.17;;
28174;SDS011;59417;44.788;10.334;2024-03-29T09:16:47;55.17;;;38.22;;
28174;SDS011;59417;44.788;10.334;2024-03-29T09:19:22;58.08;;;37.17;;
28174;SDS011;59417;44.788;10.334;2024-03-29T09:21:56;57.17;;;40.50;;
28174;SDS011;59417;44.788;10.334;2024-03-29T09:24:29;56.33;;;40.70;;
28174;SDS011;59417;44.788;10.334;2024-03-29T09:27:20;63.97;;;43.17;;
28174;SDS011;59417;44.788;10.334;2024-03-29T09:29:51;58.85;;;41.25;;
28174;SDS011;59417;44.788;10.334;2024-03-29T09:32:18;64.53;;;39.53;;
28174;SDS011;59417;44.788;10.334;2024-03-29T09:34:46;55.70;;;40.10;;
28174;SDS011;59417;44.788;10.334;2024-03-29T09:37:13;60.70;;;43.58;;
28174;SDS011;59417;44.788;10.334;2024-03-29T09:39:39;60.83;;;40.00;;
28174;SDS011;59417;44.788;10.334;2024-03-29T09:42:06;59.47;;;40.88;;
28174;SDS011;59417;44.788;10.334;2024-03-29T09:44:35;59.13;;;40.70;;
28174;SDS011;59417;44.788;10.334;2024-03-29T09:47:07;75.90;;;49.03;;
28174;SDS011;59417;44.788;10.334;2024-03-29T09:49:35;59.22;;;41.38;;
28174;SDS011;59417;44.788;10.334;2024-03-29T09:52:32;60.35;;;42.03;;
28174;SDS011;59417;44.788;10.334;2024-03-29T09:55:02;57.40;;;39.47;;
28174;SDS011;59417;44.788;10.334;2024-03-29T09:57:28;58.00;;;40.63;;
28174;SDS011;59417;44.788;10.334;2024-03-29T09:59:57;52.55;;;39.58;;
28174;SDS011;59417;44.788;10.334;2024-03-29T10:02:24;60.97;;;43.15;;
28174;SDS011;59417;44.788;10.334;2024-03-29T10:04:52;59.28;;;41.30;;
28174;SDS011;59417;44.788;10.334;2024-03-29T10:07:20;65.65;;;42.15;;
28174;SDS011;59417;44.788;10.334;2024-03-29T10:09:47;60.92;;;43.30;;
28174;SDS011;59417;44.788;10.334;2024-03-29T10:12:15;64.68;;;42.67;;
28174;SDS011;59417;44.788;10.334;2024-03-29T10:14:51;58.10;;;39.40;;
28174;SDS011;59417;44.788;10.334;2024-03-29T10:17:20;58.33;;;39.90;;
28174;SDS011;59417;44.788;10.334;2024-03-29T10:19:46;55.63;;;38.40;;
28174;SDS011;59417;44.788;10.334;2024-03-29T10:22:12;56.90;;;39.50;;
28174;SDS011;59417;44.788;10.334;2024-03-29T10:24:39;53.78;;;37.45;;
28174;SDS011;59417;44.788;10.334;2024-03-29T10:27:06;55.30;;;38.83;;
28174;SDS011;59417;44.788;10.334;2024-03-29T10:29:33;55.45;;;38.58;;
28174;SDS011;59417;44.788;10.334;2024-03-29T10:32:02;61.75;;;41.95;;
28174;SDS011;59417;44.788;10.334;2024-03-29T10:34:29;66.03;;;41.95;;
28174;SDS011;59417;44.788;10.334;2024-03-29T10:37:04;59.50;;;40.08;;
28174;SDS011;59417;44.788;10.334;2024-03-29T10:39:31;56.83;;;37.88;;
28174;SDS011;59417;44.788;10.334;2024-03-29T10:41:59;58.75;;;40.10;;
28174;SDS011;59417;44.788;10.334;2024-03-29T10:44:30;57.95;;;41.33;;
28174;SDS011;59417;44.788;10.334;2024-03-29T10:47:05;52.95;;;39.63;;
28174;SDS011;59417;44.788;10.334;2024-03-29T10:49:33;54.00;;;38.38;;
28174;SDS011;59417;44.788;10.334;2024-03-29T10:52:13;58.80;;;40.03;;
28174;SDS011;59417;44.788;10.334;2024-03-29T10:54:49;55.47;;;39.63;;
28174;SDS011;59417;44.788;10.334;2024-03-29T10:57:22;52.10;;;39.38;;
28174;SDS011;59417;44.788;10.334;2024-03-29T11:02:39;60.15;;;40.97;;
28174;SDS011;59417;44.788;10.334;2024-03-29T11:05:12;62.47;;;39.67;;
28174;SDS011;59417;44.788;10.334;2024-03-29T11:07:43;62.70;;;44.22;;
28174;SDS011;59417;44.788;10.334;2024-03-29T11:10:15;67.10;;;44.40;;
28174;SDS011;59417;44.788;10.334;2024-03-29T11:15:37;71.13;;;45.05;;
28174;SDS011;59417;44.788;10.334;2024-03-29T11:18:05;64.75;;;43.65;;
28174;SDS011;59417;44.788;10.334;2024-03-29T11:20:33;64.13;;;44.05;;
28174;SDS011;59417;44.788;10.334;2024-03-29T11:23:09;69.30;;;46.45;;
28174;SDS011;59417;44.788;10.334;2024-03-29T11:25:44;62.60;;;44.45;;
28174;SDS011;59417;44.788;10.334;2024-03-29T11:28:12;66.38;;;44.53;;
28174;SDS011;59417;44.788;10.334;2024-03-29T11:30:47;61.40;;;42.60;;
28174;SDS011;59417;44.788;10.334;2024-03-29T11:34:08;63.78;;;40.88;;
28174;SDS011;59417;44.788;10.334;2024-03-29T11:36:24;65.40;;;40.33;;
28174;SDS011;59417;44.788;10.334;2024-03-29T11:38:55;63.28;;;43.95;;
28174;SDS011;59417;44.788;10.334;2024-03-29T11:41:23;61.90;;;41.30;;
28174;SDS011;59417;44.788;10.334;2024-03-29T11:43:50;71.88;;;45.70;;
28174;SDS011;59417;44.788;10.334;2024-03-29T11:46:19;62.53;;;43.17;;
28174;SDS011;59417;44.788;10.334;2024-03-29T11:48:45;64.70;;;42.63;;
28174;SDS011;59417;44.788;10.334;2024-03-29T11:51:15;60.20;;;42.23;;
28174;SDS011;59417;44.788;10.334;2024-03-29T11:53:47;61.78;;;44.03;;
28174;SDS011;59417;44.788;10.334;2024-03-29T11:56:13;60.15;;;40.97;;
28174;SDS011;59417;44.788;10.334;2024-03-29T11:58:39;66.30;;;43.33;;
28174;SDS011;59417;44.788;10.334;2024-03-29T12:01:06;66.50;;;42.72;;
28174;SDS011;59417;44.788;10.334;2024-03-29T12:03:39;68.88;;;41.00;;
28174;SDS011;59417;44.788;10.334;2024-03-29T12:06:05;61.65;;;43.85;;
28174;SDS011;59417;44.788;10.334;2024-03-29T12:08:33;60.60;;;43.25;;
28174;SDS011;59417;44.788;10.334;2024-03-29T12:11:02;61.30;;;42.13;;
28174;SDS011;59417;44.788;10.334;2024-03-29T12:13:32;65.77;;;44.20;;
28174;SDS011;59417;44.788;10.334;2024-03-29T12:16:14;64.85;;;44.08;;
28174;SDS011;59417;44.788;10.334;2024-03-29T12:18:40;62.17;;;41.92;;
28174;SDS011;59417;44.788;10.334;2024-03-29T12:21:07;63.92;;;45.10;;
28174;SDS011;59417;44.788;10.334;2024-03-29T12:23:34;67.15;;;42.10;;
28174;SDS011;59417;44.788;10.334;2024-03-29T12:26:01;65.40;;;44.08;;
28174;SDS011;59417;44.788;10.334;2024-03-29T12:28:28;66.07;;;44.20;;
28174;SDS011;59417;44.788;10.334;2024-03-29T12:30:55;60.50;;;41.95;;
28174;SDS011;59417;44.788;10.334;2024-03-29T12:33:23;63.28;;;41.83;;
28174;SDS011;59417;44.788;10.334;2024-03-29T12:35:50;69.20;;;43.92;;
28174;SDS011;59417;44.788;10.334;2024-03-29T12:38:22;59.13;;;40.65;;
28174;SDS011;59417;44.788;10.334;2024-03-29T12:40:49;67.47;;;42.05;;
28174;SDS011;59417;44.788;10.334;2024-03-29T12:43:21;62.53;;;44.00;;
28174;SDS011;59417;44.788;10.334;2024-03-29T12:45:49;65.07;;;41.63;;
28174;SDS011;59417;44.788;10.334;2024-03-29T12:48:18;63.28;;;41.90;;
28174;SDS011;59417;44.788;10.334;2024-03-29T12:50:46;57.58;;;41.65;;
28174;SDS011;59417;44.788;10.334;2024-03-29T12:53:13;67.60;;;46.88;;
28174;SDS011;59417;44.788;10.334;2024-03-29T12:55:43;63.22;;;43.05;;
28174;SDS011;59417;44.788;10.334;2024-03-29T12:58:15;61.28;;;43.10;;
28174;SDS011;59417;44.788;10.334;2024-03-29T13:00:45;70.82;;;44.42;;
28174;SDS011;59417;44.788;10.334;2024-03-29T13:03:12;65.93;;;43.57;;
28174;SDS011;59417;44.788;10.334;2024-03-29T13:05:39;65.45;;;43.70;;
28174;SDS011;59417;44.788;10.334;2024-03-29T13:08:10;65.93;;;45.08;;
28174;SDS011;59417;44.788;10.334;2024-03-29T13:10:42;63.58;;;42.72;;
28174;SDS011;59417;44.788;10.334;2024-03-29T13:13:10;57.78;;;40.92;;
28174;SDS011;59417;44.788;10.334;2024-03-29T13:15:42;61.53;;;42.42;;
28174;SDS011;59417;44.788;10.334;2024-03-29T13:18:14;59.97;;;43.88;;
28174;SDS011;59417;44.788;10.334;2024-03-29T13:20:50;62.72;;;44.22;;
28174;SDS011;59417;44.788;10.334;2024-03-29T13:23:22;63.17;;;41.30;;
28174;SDS011;59417;44.788;10.334;2024-03-29T13:25:48;62.45;;;43.55;;
28174;SDS011;59417;44.788;10.334;2024-03-29T13:28:16;68.93;;;42.05;;
28174;SDS011;59417;44.788;10.334;2024-03-29T13:30:42;57.58;;;39.85;;
28174;SDS011;59417;44.788;10.334;2024-03-29T13:33:13;64.53;;;45.22;;
28174;SDS011;59417;44.788;10.334;2024-03-29T13:38:09;57.22;;;41.65;;
28174;SDS011;59417;44.788;10.334;2024-03-29T13:40:36;63.80;;;43.03;;
28174;SDS011;59417;44.788;10.334;2024-03-29T13:43:02;64.20;;;42.15;;
28174;SDS011;59417;44.788;10.334;2024-03-29T13:45:29;66.75;;;42.55;;
28174;SDS011;59417;44.788;10.334;2024-03-29T13:47:55;64.63;;;40.72;;
28174;SDS011;59417;44.788;10.334;2024-03-29T13:50:22;68.05;;;43.45;;
28174;SDS011;59417;44.788;10.334;2024-03-29T13:52:48;62.17;;;44.28;;
28174;SDS011;59417;44.788;10.334;2024-03-29T13:55:16;68.53;;;47.13;;
28174;SDS011;59417;44.788;10.334;2024-03-29T13:57:42;67.68;;;43.08;;
28174;SDS011;59417;44.788;10.334;2024-03-29T14:00:12;58.10;;;42.22;;
28174;SDS011;59417;44.788;10.334;2024-03-29T14:02:40;60.65;;;43.25;;
28174;SDS011;59417;44.788;10.334;2024-03-29T14:05:05;58.85;;;41.58;;
28174;SDS011;59417;44.788;10.334;2024-03-29T14:07:31;73.68;;;43.08;;
28174;SDS011;59417;44.788;10.334;2024-03-29T14:09:57;58.28;;;41.53;;
28174;SDS011;59417;44.788;10.334;2024-03-29T14:12:23;66.35;;;43.70;;
28174;SDS011;59417;44.788;10.334;2024-03-29T14:14:50;65.78;;;43.58;;
28174;SDS011;59417;44.788;10.334;2024-03-29T14:17:20;63.60;;;43.42;;
28174;SDS011;59417;44.788;10.334;2024-03-29T14:19:47;66.07;;;47.15;;
28174;SDS011;59417;44.788;10.334;2024-03-29T14:22:15;65.90;;;45.85;;
28174;SDS011;59417;44.788;10.334;2024-03-29T14:24:42;65.82;;;47.65;;
28174;SDS011;59417;44.788;10.334;2024-03-29T14:27:09;71.25;;;49.13;;